Rosava — UUBX2 — position and weather

sailwx.info

Track history (hours):
 
Tides and Currents Weather Stations Pressure Air Temp Water Temp Dewpoint Dewpoint Depression Visibility Wind Speed Wind Dir Waves Ship Positions

Rosava

Last reported at 2017-Dec-15 01:01 UTC. Time now 2018-Jan-21 18:38 UTC.
Position N 48°03' E 035°07'.
Warning: this ship's position is 37 days out of date.

Length 135 m; draft 1.4 m.

Type: Ship. MMSI: 272149400.

Date/timePositionNaut miles runAvg speedWind from/ knotsBaromVisibWave heightAir tempDewpointWater temp
2017-Dec-15 01:01N 48°03' E 035°07'2 3.1
2017-Dec-15 00:31N 48°01' E 035°08'13 2.2
2017-Dec-14 18:30N 47°48' E 035°10'0 0.1
2017-Dec-14 18:00N 47°48' E 035°10'0 0.0
2017-Dec-14 17:30N 47°48' E 035°10'0 0.0
2017-Dec-14 16:55N 47°48' E 035°10'0 0.0
2017-Dec-14 16:24N 47°48' E 035°10'0 0.1
2017-Dec-14 15:53N 47°48' E 035°10'0 0.0
2017-Dec-14 12:48N 47°48' E 035°10'0 0.0
2017-Dec-14 12:18N 47°48' E 035°10'0 0.0
2017-Dec-14 11:53N 47°48' E 035°10'0 0.0
2017-Dec-14 11:29N 47°48' E 035°10'0 0.0
2017-Dec-14 10:59N 47°48' E 035°10'0 0.0
2017-Dec-14 10:29N 47°48' E 035°10'0 0.0
2017-Dec-14 09:59N 47°48' E 035°10'0 0.0
2017-Dec-14 09:29N 47°48' E 035°10'0 0.1
2017-Dec-14 08:59N 47°48' E 035°10'0 0.0
2017-Dec-14 08:29N 47°48' E 035°10'0 0.0
2017-Dec-14 07:59N 47°48' E 035°10'0 0.0
2017-Dec-14 07:25N 47°48' E 035°10'0 0.0
2017-Dec-14 06:55N 47°48' E 035°10'0 0.0
2017-Dec-14 06:25N 47°48' E 035°10'0 0.0
2017-Dec-14 06:00N 47°48' E 035°10'0 0.1
2017-Dec-14 05:28N 47°48' E 035°10'0 0.0
2017-Dec-14 05:00N 47°48' E 035°10'0 0.1
2017-Dec-14 04:30N 47°48' E 035°10'0 0.0
2017-Dec-14 04:00N 47°48' E 035°10'0 0.0
2017-Dec-14 03:30N 47°48' E 035°10'0 0.0
2017-Dec-14 03:00N 47°48' E 035°10'0 0.0
2017-Dec-14 02:30N 47°48' E 035°10'0 0.2
2017-Dec-14 02:00N 47°48' E 035°10'1 2.5
2017-Dec-14 01:30N 47°47' E 035°09'2 3.1
2017-Dec-14 01:00N 47°45' E 035°10'2 3.1
2017-Dec-14 00:30N 47°44' E 035°10'2 3.2
2017-Dec-14 00:00N 47°43' E 035°08'2 3.1
2017-Dec-13 23:30N 47°41' E 035°08'2 3.3
2017-Dec-13 23:00N 47°39' E 035°07'2 3.2
2017-Dec-13 22:30N 47°38' E 035°06'2 3.2
2017-Dec-13 22:00N 47°37' E 035°04'2 2.9
2017-Dec-13 21:15N 47°35' E 035°02'1 2.9
2017-Dec-13 21:00N 47°35' E 035°02'  
2017-Dec-07 06:37N 47°34' E 035°00'0 3.1
2017-Dec-07 06:30N 47°34' E 035°01'1 2.9
2017-Dec-07 06:00N 47°35' E 035°02'1 2.3
2017-Dec-07 05:29N 47°36' E 035°02'0 0.1
2017-Dec-07 04:53N 47°36' E 035°02'0 0.0
2017-Dec-07 04:15N 47°36' E 035°03'0 0.1
2017-Dec-07 03:57N 47°36' E 035°03'0 0.0
2017-Dec-07 03:15N 47°36' E 035°03'0 0.0
2017-Dec-07 03:00N 47°36' E 035°03'0 0.0
2017-Dec-07 01:58N 47°36' E 035°03'0 0.0
2017-Dec-07 01:30N 47°36' E 035°03'0 0.0
2017-Dec-07 00:59N 47°36' E 035°03'0 0.0
2017-Dec-06 23:47N 47°36' E 035°03'0 0.0
2017-Dec-06 23:29N 47°36' E 035°03'0 0.0
2017-Dec-06 22:59N 47°36' E 035°03'0 0.0
2017-Dec-06 22:29N 47°36' E 035°03'0 0.0
2017-Dec-06 21:03N 47°36' E 035°03'0 0.0
2017-Dec-06 21:00N 47°36' E 035°03'  
Track history (hours):
 
Tides and Currents Weather Stations Pressure Air Temp Water Temp Dewpoint Dewpoint Depression Visibility Wind Speed Wind Dir Waves Ship Positions

Rosava

Last reported at 2017-Dec-15 01:01 UTC. Time now 2018-Jan-21 18:38 UTC.
Position N 48°03' E 035°07'.
Warning: this ship's position is 37 days out of date.

Length 135 m; draft 1.4 m.

Type: Ship. MMSI: 272149400.

Date/timePositionNaut miles runAvg speedWind from/ knotsBaromVisibWave heightAir tempDewpointWater temp
2017-Dec-15 01:01N 48°03' E 035°07'2 3.1
2017-Dec-15 00:31N 48°01' E 035°08'13 2.2
2017-Dec-14 18:30N 47°48' E 035°10'0 0.1
2017-Dec-14 18:00N 47°48' E 035°10'0 0.0
2017-Dec-14 17:30N 47°48' E 035°10'0 0.0
2017-Dec-14 16:55N 47°48' E 035°10'0 0.0
2017-Dec-14 16:24N 47°48' E 035°10'0 0.1
2017-Dec-14 15:53N 47°48' E 035°10'0 0.0
2017-Dec-14 12:48N 47°48' E 035°10'0 0.0
2017-Dec-14 12:18N 47°48' E 035°10'0 0.0
2017-Dec-14 11:53N 47°48' E 035°10'0 0.0
2017-Dec-14 11:29N 47°48' E 035°10'0 0.0
2017-Dec-14 10:59N 47°48' E 035°10'0 0.0
2017-Dec-14 10:29N 47°48' E 035°10'0 0.0
2017-Dec-14 09:59N 47°48' E 035°10'0 0.0
2017-Dec-14 09:29N 47°48' E 035°10'0 0.1
2017-Dec-14 08:59N 47°48' E 035°10'0 0.0
2017-Dec-14 08:29N 47°48' E 035°10'0 0.0
2017-Dec-14 07:59N 47°48' E 035°10'0 0.0
2017-Dec-14 07:25N 47°48' E 035°10'0 0.0
2017-Dec-14 06:55N 47°48' E 035°10'0 0.0
2017-Dec-14 06:25N 47°48' E 035°10'0 0.0
2017-Dec-14 06:00N 47°48' E 035°10'0 0.1
2017-Dec-14 05:28N 47°48' E 035°10'0 0.0
2017-Dec-14 05:00N 47°48' E 035°10'0 0.1
2017-Dec-14 04:30N 47°48' E 035°10'0 0.0
2017-Dec-14 04:00N 47°48' E 035°10'0 0.0
2017-Dec-14 03:30N 47°48' E 035°10'0 0.0
2017-Dec-14 03:00N 47°48' E 035°10'0 0.0
2017-Dec-14 02:30N 47°48' E 035°10'0 0.2
2017-Dec-14 02:00N 47°48' E 035°10'1 2.5
2017-Dec-14 01:30N 47°47' E 035°09'2 3.1
2017-Dec-14 01:00N 47°45' E 035°10'2 3.1
2017-Dec-14 00:30N 47°44' E 035°10'2 3.2
2017-Dec-14 00:00N 47°43' E 035°08'2 3.1
2017-Dec-13 23:30N 47°41' E 035°08'2 3.3
2017-Dec-13 23:00N 47°39' E 035°07'2 3.2
2017-Dec-13 22:30N 47°38' E 035°06'2 3.2
2017-Dec-13 22:00N 47°37' E 035°04'2 2.9
2017-Dec-13 21:15N 47°35' E 035°02'1 2.9
2017-Dec-13 21:00N 47°35' E 035°02'  
2017-Dec-07 06:37N 47°34' E 035°00'0 3.1
2017-Dec-07 06:30N 47°34' E 035°01'1 2.9
2017-Dec-07 06:00N 47°35' E 035°02'1 2.3
2017-Dec-07 05:29N 47°36' E 035°02'0 0.1
2017-Dec-07 04:53N 47°36' E 035°02'0 0.0
2017-Dec-07 04:15N 47°36' E 035°03'0 0.1
2017-Dec-07 03:57N 47°36' E 035°03'0 0.0
2017-Dec-07 03:15N 47°36' E 035°03'0 0.0
2017-Dec-07 03:00N 47°36' E 035°03'0 0.0
2017-Dec-07 01:58N 47°36' E 035°03'0 0.0
2017-Dec-07 01:30N 47°36' E 035°03'0 0.0
2017-Dec-07 00:59N 47°36' E 035°03'0 0.0
2017-Dec-06 23:47N 47°36' E 035°03'0 0.0
2017-Dec-06 23:29N 47°36' E 035°03'0 0.0
2017-Dec-06 22:59N 47°36' E 035°03'0 0.0
2017-Dec-06 22:29N 47°36' E 035°03'0 0.0
2017-Dec-06 21:03N 47°36' E 035°03'0 0.0
2017-Dec-06 21:00N 47°36' E 035°03'  

Dump ship's entire track history